createdAt,value
2018-02-06T00:00:55.266Z,99.99
2018-02-06T00:02:05.006Z,99.99
2018-02-06T00:03:14.963Z,99.99
2018-02-06T00:04:24.134Z,99.99
2018-02-06T00:05:34.079Z,99.99
2018-02-06T00:06:44.061Z,99.99
2018-02-06T00:07:54.007Z,99.99
2018-02-06T00:09:03.975Z,99.99
2018-02-06T00:10:13.672Z,99.99
2018-02-06T00:11:23.616Z,99.99
2018-02-06T00:12:33.592Z,99.99
2018-02-06T00:13:43.281Z,99.99
2018-02-06T00:14:53.227Z,99.99
2018-02-06T00:16:03.164Z,99.99
2018-02-06T00:17:12.606Z,99.99
2018-02-06T00:18:22.561Z,99.99
2018-02-06T00:19:32.251Z,99.99
2018-02-06T00:20:42.209Z,99.99
2018-02-06T00:21:51.890Z,99.99
2018-02-06T00:23:01.881Z,99.99
2018-02-06T00:24:11.826Z,99.99
2018-02-06T00:25:21.797Z,99.99
2018-02-06T00:26:31.497Z,99.99
2018-02-06T00:27:41.450Z,99.99
2018-02-06T00:28:51.147Z,99.99
2018-02-06T00:30:01.138Z,99.99
2018-02-06T00:31:10.832Z,99.99
2018-02-06T00:32:20.523Z,99.99
2018-02-06T00:33:30.470Z,99.99
2018-02-06T00:34:40.428Z,99.99
2018-02-06T00:35:50.103Z,99.99
2018-02-06T00:37:00.057Z,99.99
2018-02-06T00:38:10.008Z,99.99
2018-02-06T00:39:19.978Z,99.99
2018-02-06T00:40:29.912Z,99.99
2018-02-06T00:41:39.868Z,99.99
2018-02-06T00:42:49.808Z,99.99
2018-02-06T00:43:59.499Z,99.99
2018-02-06T00:45:09.454Z,99.99
2018-02-06T00:46:19.406Z,99.99
2018-02-06T00:47:29.089Z,99.99
2018-02-06T00:48:39.029Z,99.99
2018-02-06T00:49:48.969Z,99.99
2018-02-06T00:50:58.914Z,99.99
2018-02-06T00:52:08.860Z,99.99
2018-02-06T00:53:18.812Z,99.99
2018-02-06T00:54:28.501Z,99.99
2018-02-06T00:55:38.201Z,99.99
2018-02-06T00:56:47.890Z,99.99
2018-02-06T00:57:57.833Z,99.99
2018-02-06T00:59:07.788Z,99.99
2018-02-06T01:00:17.485Z,99.99
2018-02-06T01:01:27.433Z,99.99
2018-02-06T01:02:37.394Z,99.99
2018-02-06T01:03:47.333Z,99.99
2018-02-06T01:04:57.274Z,99.99
2018-02-06T01:06:07.218Z,99.99
2018-02-06T01:07:16.920Z,99.99
2018-02-06T01:08:26.613Z,99.99
2018-02-06T01:09:36.301Z,99.99
2018-02-06T01:10:45.999Z,99.99
2018-02-06T01:11:55.938Z,99.99
2018-02-06T01:13:05.624Z,99.99
2018-02-06T01:14:15.561Z,99.99
2018-02-06T01:15:25.249Z,99.99
2018-02-06T01:16:35.221Z,99.99
2018-02-06T01:17:45.165Z,99.99
2018-02-06T01:18:54.849Z,99.99
2018-02-06T01:20:04.793Z,99.99
2018-02-06T01:21:14.749Z,99.99
2018-02-06T01:22:24.496Z,99.99
2018-02-06T01:23:34.433Z,99.99
2018-02-06T01:24:44.373Z,99.99
2018-02-06T01:25:54.085Z,99.99
2018-02-06T01:27:03.781Z,99.99
2018-02-06T01:28:13.715Z,99.99
2018-02-06T01:29:23.405Z,99.99
2018-02-06T01:30:33.349Z,99.99
2018-02-06T01:31:43.291Z,99.99
2018-02-06T01:32:52.973Z,99.99
2018-02-06T01:34:02.915Z,99.99
2018-02-06T01:35:12.855Z,99.99
2018-02-06T01:36:22.553Z,99.99
2018-02-06T01:37:32.286Z,99.99
2018-02-06T01:38:42.234Z,99.99
2018-02-06T01:39:51.922Z,99.99
2018-02-06T01:41:01.596Z,99.99
2018-02-06T01:42:11.292Z,99.99
2018-02-06T01:43:21.249Z,99.99
2018-02-06T01:44:30.944Z,99.99
2018-02-06T01:45:40.885Z,99.99
2018-02-06T01:46:50.825Z,99.99
2018-02-06T01:48:00.783Z,99.99
2018-02-06T01:49:10.722Z,99.99
2018-02-06T01:50:20.656Z,99.99
2018-02-06T01:51:30.092Z,99.99
2018-02-06T01:52:40.031Z,99.99
2018-02-06T01:53:49.975Z,99.99
2018-02-06T01:54:59.688Z,99.99
2018-02-06T01:56:09.366Z,99.99
2018-02-06T01:57:19.310Z,99.99
2018-02-06T01:58:29.273Z,99.99
2018-02-06T01:59:39.225Z,99.99
2018-02-06T02:00:49.177Z,99.99
2018-02-06T02:01:59.116Z,99.99
2018-02-06T02:03:08.788Z,99.99
2018-02-06T02:04:18.732Z,99.99
2018-02-06T02:05:28.676Z,99.99
2018-02-06T02:06:38.628Z,99.99
2018-02-06T02:07:48.310Z,99.99
2018-02-06T02:08:58.245Z,99.99
2018-02-06T02:10:07.967Z,99.99
2018-02-06T02:11:17.900Z,99.99
2018-02-06T02:12:27.833Z,99.99
2018-02-06T02:13:37.521Z,99.99
2018-02-06T02:14:47.461Z,99.99
2018-02-06T02:15:56.891Z,99.99
2018-02-06T02:17:06.622Z,99.99
2018-02-06T02:18:16.561Z,99.99
2018-02-06T02:19:26.503Z,99.99
2018-02-06T02:20:36.444Z,99.99
2018-02-06T02:21:46.376Z,99.99
2018-02-06T02:22:56.317Z,99.99
2018-02-06T02:24:06.002Z,99.99
2018-02-06T02:25:15.936Z,99.99
2018-02-06T02:26:25.926Z,99.99
2018-02-06T02:27:36.017Z,99.99
2018-02-06T02:28:45.992Z,99.99
2018-02-06T02:29:55.923Z,99.99
2018-02-06T02:31:05.855Z,99.99
2018-02-06T02:32:15.029Z,99.99
2018-02-06T02:33:24.967Z,99.99
2018-02-06T02:34:34.912Z,99.99
2018-02-06T02:35:44.859Z,99.99
2018-02-06T02:36:54.792Z,99.99
2018-02-06T02:38:04.729Z,99.99
2018-02-06T02:39:14.678Z,99.99
2018-02-06T02:40:24.672Z,99.99
2018-02-06T02:41:34.351Z,99.99
2018-02-06T04:39:01.222Z,99.99
2018-02-06T04:40:11.201Z,99.99
2018-02-06T04:41:21.149Z,99.99
2018-02-06T04:42:31.081Z,99.99
2018-02-06T04:43:41.030Z,99.99
2018-02-06T04:44:50.709Z,99.99
2018-02-06T04:46:00.646Z,99.99
2018-02-06T04:47:10.579Z,99.99
2018-02-06T04:48:20.515Z,99.99
2018-02-06T04:49:30.194Z,99.99
2018-02-06T04:50:40.126Z,99.99
2018-02-06T04:51:50.056Z,99.99
2018-02-06T04:52:59.995Z,99.99
2018-02-06T04:54:09.919Z,99.99
2018-02-06T04:55:19.854Z,99.99
2018-02-06T04:56:29.538Z,99.99
2018-02-06T04:57:39.468Z,99.99
2018-02-06T04:58:49.401Z,99.99
2018-02-06T04:59:59.330Z,99.99
2018-02-06T05:01:09.253Z,99.99
2018-02-06T05:02:18.924Z,99.99
2018-02-06T05:03:28.860Z,99.99
2018-02-06T05:04:38.831Z,99.99
2018-02-06T05:05:48.512Z,99.99
2018-02-06T05:06:58.463Z,99.99
2018-02-06T05:08:08.404Z,99.99
2018-02-06T05:09:18.125Z,99.99
2018-02-06T05:10:27.806Z,99.99
2018-02-06T05:11:37.487Z,99.99
2018-02-06T05:12:47.171Z,99.99
2018-02-06T05:13:56.590Z,99.99
2018-02-06T05:15:06.522Z,99.99
2018-02-06T05:16:16.470Z,99.99
2018-02-06T05:17:26.405Z,99.99
2018-02-06T05:18:36.105Z,99.99
2018-02-06T05:19:46.040Z,99.99
2018-02-06T05:20:55.981Z,99.99
2018-02-06T05:22:05.656Z,99.99
2018-02-06T05:23:15.342Z,99.99
2018-02-06T05:24:25.279Z,99.99
2018-02-06T05:25:34.948Z,99.99
2018-02-06T05:26:44.364Z,99.99
2018-02-06T05:27:54.300Z,99.99
2018-02-06T05:29:04.236Z,99.99
2018-02-06T05:30:14.204Z,99.99
2018-02-06T05:31:24.149Z,99.99
2018-02-06T05:32:33.836Z,99.99
2018-02-06T05:33:43.779Z,99.99
2018-02-06T05:34:53.482Z,99.99
2018-02-06T05:36:03.406Z,99.99
2018-02-06T05:37:13.358Z,99.99
2018-02-06T05:38:23.515Z,99.99
2018-02-06T05:39:33.195Z,99.99
2018-02-06T05:40:43.121Z,99.99
2018-02-06T05:41:52.806Z,99.99
2018-02-06T05:43:02.502Z,99.99
2018-02-06T05:44:12.178Z,99.99
2018-02-06T05:45:22.121Z,99.99
2018-02-06T05:46:31.542Z,99.99
2018-02-06T05:47:41.217Z,99.99
2018-02-06T05:48:51.154Z,99.99
2018-02-06T05:50:01.083Z,99.99
2018-02-06T05:51:10.766Z,99.99
2018-02-06T05:52:20.451Z,99.99
2018-02-06T05:53:30.407Z,99.99
2018-02-06T05:54:40.351Z,99.99
2018-02-06T05:55:50.037Z,99.99
2018-02-06T05:56:59.980Z,99.99
2018-02-06T05:58:09.943Z,99.99
2018-02-06T05:59:20.043Z,99.99
2018-02-06T06:00:29.983Z,99.99
2018-02-06T06:01:39.426Z,99.99
2018-02-06T06:02:49.103Z,99.99
2018-02-06T06:03:59.035Z,99.99
2018-02-06T06:05:08.717Z,99.99
2018-02-06T06:06:18.396Z,99.99
2018-02-06T06:07:28.338Z,99.99
2018-02-06T06:08:38.266Z,99.99
2018-02-06T06:09:47.984Z,99.99
2018-02-06T06:10:57.923Z,99.99
2018-02-06T06:12:07.861Z,99.99
2018-02-06T06:13:17.804Z,99.99
2018-02-06T06:14:27.744Z,99.99
2018-02-06T06:15:37.447Z,99.99
2018-02-06T06:16:47.386Z,99.99
2018-02-06T06:17:57.067Z,99.99
2018-02-06T06:19:06.758Z,99.99
2018-02-06T06:20:16.713Z,99.99
2018-02-06T06:21:26.677Z,99.99
2018-02-06T06:22:36.614Z,99.99
2018-02-06T06:23:46.299Z,99.99
2018-02-06T06:24:56.243Z,99.99
2018-02-06T06:26:05.933Z,99.99
2018-02-06T06:27:15.878Z,99.99
2018-02-06T06:28:25.825Z,99.99
2018-02-06T06:29:35.519Z,99.99
2018-02-06T06:30:45.483Z,99.99
2018-02-06T06:31:55.452Z,99.99
2018-02-06T06:33:05.389Z,99.99
2018-02-06T06:34:15.337Z,99.99
2018-02-06T06:35:25.014Z,99.99
2018-02-06T06:36:34.959Z,99.99
2018-02-06T06:37:44.639Z,99.99
2018-02-06T06:38:54.313Z,99.99
2018-02-06T06:40:04.249Z,99.99
2018-02-06T06:41:13.932Z,99.99
2018-02-06T06:42:23.617Z,99.99
2018-02-06T06:43:33.560Z,99.99
2018-02-06T06:44:43.238Z,99.99
2018-02-06T06:45:53.188Z,99.99
2018-02-06T06:47:03.132Z,99.99
2018-02-06T06:48:12.555Z,99.99
2018-02-06T06:49:22.229Z,99.99
2018-02-06T06:50:32.179Z,99.99
2018-02-06T06:51:42.137Z,99.99
2018-02-06T06:52:51.567Z,99.99
2018-02-06T06:54:01.253Z,99.99
2018-02-06T06:55:10.981Z,99.99
2018-02-06T06:56:20.676Z,99.99
2018-02-06T06:57:30.606Z,99.99
2018-02-06T06:58:40.537Z,99.99
2018-02-06T06:59:50.320Z,99.99
2018-02-06T07:01:00.265Z,99.99
2018-02-06T07:02:10.201Z,99.99
2018-02-06T07:03:19.879Z,99.99
2018-02-06T07:04:29.571Z,99.99
2018-02-06T07:05:39.250Z,99.99
2018-02-06T07:06:49.202Z,99.99
2018-02-06T07:07:59.147Z,99.99
2018-02-06T07:09:09.088Z,99.99
2018-02-06T07:10:19.028Z,99.99
2018-02-06T07:11:28.991Z,99.99
2018-02-06T07:12:38.937Z,99.99
2018-02-06T07:13:48.623Z,99.99
2018-02-06T07:14:58.565Z,99.99
2018-02-06T07:16:08.277Z,99.99
2018-02-06T07:17:17.967Z,99.99
2018-02-06T07:18:27.641Z,99.99
2018-02-06T07:19:37.597Z,99.99
2018-02-06T07:20:47.541Z,99.99
2018-02-06T07:21:57.236Z,99.99
2018-02-06T07:23:07.164Z,99.99
2018-02-06T07:24:17.118Z,99.99
2018-02-06T07:25:27.050Z,99.99
2018-02-06T07:26:36.987Z,99.99
2018-02-06T07:27:46.926Z,99.99
2018-02-06T07:28:56.657Z,99.99
2018-02-06T07:30:06.366Z,99.99
2018-02-06T07:31:16.048Z,99.99
2018-02-06T07:32:25.990Z,99.99
2018-02-06T07:33:35.672Z,99.99
2018-02-06T07:34:45.359Z,99.99
2018-02-06T07:35:55.038Z,99.99
2018-02-06T07:37:04.978Z,99.99
2018-02-06T07:38:14.932Z,99.99
2018-02-06T07:39:24.868Z,99.99
2018-02-06T07:40:34.806Z,99.99
2018-02-06T07:41:44.228Z,99.99
2018-02-06T07:42:53.975Z,99.99
2018-02-06T07:44:03.908Z,99.99
2018-02-06T07:45:13.846Z,99.99
2018-02-06T07:46:23.537Z,99.99
2018-02-06T07:47:33.217Z,99.99
2018-02-06T07:48:42.906Z,99.99
2018-02-06T07:49:52.599Z,99.99
2018-02-06T07:51:02.580Z,99.99
2018-02-06T07:52:12.306Z,99.99
2018-02-06T07:53:22.254Z,99.99
2018-02-06T07:54:31.944Z,99.99
2018-02-06T07:55:41.881Z,99.99
2018-02-06T07:56:51.879Z,99.99
2018-02-06T07:58:01.841Z,99.99
2018-02-06T07:59:11.279Z,99.99
2018-02-06T08:00:20.979Z,99.99
2018-02-06T08:01:30.986Z,99.99
2018-02-06T08:02:40.938Z,99.99
2018-02-06T08:03:50.891Z,99.99
2018-02-06T08:05:00.838Z,99.99
2018-02-06T08:06:10.795Z,99.99
2018-02-06T08:07:20.736Z,99.99
2018-02-06T08:08:30.718Z,99.99
2018-02-06T08:09:40.412Z,99.99
2018-02-06T08:10:50.363Z,99.99
2018-02-06T08:12:00.432Z,99.99
2018-02-06T08:13:10.403Z,99.99
2018-02-06T08:14:20.092Z,99.99
2018-02-06T08:15:30.038Z,99.99
2018-02-06T08:16:39.983Z,99.99
2018-02-06T08:17:49.671Z,99.99
2018-02-06T08:18:59.363Z,99.99
2018-02-06T08:20:09.335Z,99.99
2018-02-06T08:21:19.286Z,99.99
2018-02-06T08:22:29.236Z,99.99
2018-02-06T08:23:38.954Z,99.99
2018-02-06T08:24:48.908Z,99.99
2018-02-06T08:25:58.878Z,99.99
2018-02-06T08:27:08.715Z,99.99
2018-02-06T08:28:18.708Z,99.99
2018-02-06T08:29:28.699Z,99.99
2018-02-06T08:30:38.661Z,99.99
2018-02-06T08:31:48.613Z,99.99
2018-02-06T08:32:58.564Z,99.99
2018-02-06T08:34:08.270Z,99.99
2018-02-06T08:35:18.232Z,99.99
2018-02-06T08:36:28.194Z,99.99
2018-02-06T08:37:37.635Z,99.99
2018-02-06T08:38:47.328Z,99.99
2018-02-06T08:39:57.027Z,99.99
2018-02-06T08:41:06.995Z,99.99
2018-02-06T08:42:16.964Z,99.99
2018-02-06T08:43:26.992Z,98.99
2018-02-06T08:44:36.701Z,99.75
2018-02-06T08:45:46.648Z,98.14
2018-02-06T08:46:56.610Z,96.16
2018-02-06T08:48:06.046Z,95.59
2018-02-06T08:49:16.004Z,96.06
2018-02-06T08:50:25.964Z,96.06
2018-02-06T08:51:35.444Z,96.25
2018-02-06T08:52:45.131Z,95.12
2018-02-06T08:53:55.109Z,94.65
2018-02-06T08:55:05.060Z,95.4
2018-02-06T08:56:15.035Z,95.21
2018-02-06T08:57:24.731Z,95.5
2018-02-06T08:58:34.435Z,94.93
2018-02-06T08:59:44.136Z,94.74
2018-02-06T09:00:53.832Z,94.51
2018-02-06T09:02:03.783Z,93.56
2018-02-06T09:03:13.737Z,92.9
2018-02-06T09:04:23.696Z,91.39
2018-02-06T09:05:33.664Z,90.68
2018-02-06T09:06:43.645Z,90.49
2018-02-06T09:07:53.100Z,90.35
2018-02-06T09:09:03.046Z,90.63
2018-02-06T09:10:13.002Z,90.91
2018-02-06T09:11:23.209Z,91.2
2018-02-06T09:12:33.248Z,91.29
2018-02-06T09:13:43.225Z,92.24
2018-02-06T09:14:52.922Z,90.91
2018-02-06T09:16:02.626Z,89.73
2018-02-06T09:17:12.103Z,89.26
2018-02-06T09:18:22.101Z,88.79
2018-02-06T09:19:31.789Z,88.12
2018-02-06T09:20:41.484Z,87.46
2018-02-06T09:21:51.181Z,86.04
2018-02-06T09:23:01.138Z,86.33
2018-02-06T09:24:11.094Z,86.99
2018-02-06T09:25:21.042Z,87.27
2018-02-06T09:26:31.001Z,86.47
2018-02-06T09:27:40.706Z,86
2018-02-06T09:28:50.679Z,86.57
2018-02-06T09:30:00.624Z,86.33
2018-02-06T09:31:10.583Z,86.71
2018-02-06T09:32:20.532Z,86.14
2018-02-06T09:33:30.499Z,86.23
2018-02-06T09:34:40.445Z,87.18
2018-02-06T09:35:50.449Z,86.52
2018-02-06T09:37:00.148Z,85.76
2018-02-06T09:38:09.596Z,86.14
2018-02-06T09:39:19.568Z,85.15
2018-02-06T09:40:29.520Z,86
2018-02-06T09:41:39.500Z,85.81
2018-02-06T09:42:49.467Z,85.34
2018-02-06T09:43:59.415Z,85.91
2018-02-06T09:45:09.382Z,86.19
2018-02-06T09:46:18.819Z,86.57
2018-02-06T09:47:28.770Z,86.47
2018-02-06T09:48:38.729Z,85.53
2018-02-06T09:49:48.684Z,86
2018-02-06T09:50:58.662Z,85.72
2018-02-06T09:52:08.610Z,85.76
2018-02-06T09:53:18.583Z,85.76
2018-02-06T09:54:28.586Z,85.1
2018-02-06T09:55:38.604Z,85.38
2018-02-06T09:56:48.323Z,84.06
2018-02-06T09:57:58.271Z,83.25
2018-02-06T09:59:08.216Z,82.12
2018-02-06T10:00:18.210Z,82.87
2018-02-06T10:01:28.162Z,82.83
2018-02-06T10:02:37.866Z,82.54
2018-02-06T10:03:47.861Z,82.92
2018-02-06T10:04:57.824Z,82.68
2018-02-06T10:06:07.781Z,83.59
2018-02-06T10:07:17.741Z,83.11
2018-02-06T10:08:27.716Z,84.06
2018-02-06T10:09:37.668Z,83.91
2018-02-06T10:10:47.619Z,84.01
2018-02-06T10:11:57.333Z,82.5
2018-02-06T10:13:07.053Z,82.78
2018-02-06T10:14:16.990Z,83.15
2018-02-06T10:15:26.942Z,82.97
2018-02-06T10:16:36.628Z,83.44
2018-02-06T10:17:46.332Z,82.97
2018-02-06T10:18:56.053Z,82.59
2018-02-06T10:20:05.724Z,81.17
2018-02-06T10:21:15.426Z,81.17
2018-02-06T10:22:25.165Z,81.55
2018-02-06T10:23:35.123Z,80.17
2018-02-06T10:24:45.098Z,79.41
2018-02-06T10:25:55.043Z,79.32
2018-02-06T10:27:04.982Z,79.98
2018-02-06T10:28:14.729Z,80.41
2018-02-06T10:29:24.686Z,80.13
2018-02-06T10:30:34.398Z,79.94
2018-02-06T10:31:44.343Z,80.17
2018-02-06T10:32:54.024Z,79.6
2018-02-06T10:34:03.958Z,78.99
2018-02-06T10:35:13.895Z,78.52
2018-02-06T10:36:23.849Z,80.6
2018-02-06T10:37:33.804Z,79.18
2018-02-06T10:38:43.755Z,79.75
2018-02-06T10:39:53.489Z,79.13
2018-02-06T10:41:03.165Z,78.94
2018-02-06T10:42:13.133Z,78.56
2018-02-06T10:43:23.076Z,78.37
2018-02-06T10:44:33.026Z,77.8
2018-02-06T10:45:42.978Z,77.61
2018-02-06T10:46:52.942Z,76.61
2018-02-06T10:48:02.658Z,76.19
2018-02-06T10:49:12.349Z,76.48
2018-02-06T10:50:22.320Z,76.95
2018-02-06T10:51:32.044Z,78.65
2018-02-06T10:52:41.999Z,79.47
2018-02-06T10:53:51.986Z,79.18
2018-02-06T10:55:01.943Z,78.8
2018-02-06T10:56:11.629Z,77.58
2018-02-06T10:57:21.607Z,76.72
2018-02-06T10:58:31.570Z,76.53
2018-02-06T10:59:41.509Z,76.91
2018-02-06T11:00:51.198Z,77.58
2018-02-06T11:02:00.948Z,77.39
2018-02-06T11:03:10.895Z,75.43
2018-02-06T11:04:20.832Z,75.34
2018-02-06T11:05:30.781Z,75.62
2018-02-06T11:06:40.828Z,76.19
2018-02-06T11:07:50.534Z,75.05
2018-02-06T11:09:00.480Z,74.43
2018-02-06T11:10:10.422Z,73.01
2018-02-06T11:11:20.379Z,72.06
2018-02-06T11:12:30.333Z,71.31
2018-02-06T11:13:40.194Z,71.31
2018-02-06T11:14:49.892Z,70.26
2018-02-06T11:15:59.855Z,70.07
2018-02-06T11:17:09.800Z,71.78
2018-02-06T11:18:19.538Z,72.41
2018-02-06T11:19:29.471Z,73.35
2018-02-06T11:20:39.410Z,73.73
2018-02-06T11:21:49.361Z,74.4
2018-02-06T11:22:59.305Z,75.59
2018-02-06T11:24:09.237Z,75.02
2018-02-06T11:25:18.936Z,74.93
2018-02-06T11:26:28.887Z,74.4
2018-02-06T11:27:38.845Z,74.4
2018-02-06T11:28:48.788Z,73.88
2018-02-06T11:29:58.479Z,73.79
2018-02-06T11:31:08.456Z,72.97
2018-02-06T11:32:18.400Z,72.12
2018-02-06T11:33:28.433Z,71.46
2018-02-06T11:34:38.389Z,72.22
2018-02-06T11:35:48.349Z,74.17
2018-02-06T11:36:58.094Z,73.69
2018-02-06T11:38:08.047Z,73.98
2018-02-06T11:39:18.120Z,75.31
2018-02-06T11:40:28.088Z,74.77
2018-02-06T11:41:38.091Z,73.26
2018-02-06T11:42:47.792Z,72.88
2018-02-06T11:43:57.482Z,72.63
2018-02-06T11:45:07.181Z,71.21
2018-02-06T11:46:17.148Z,69.13
2018-02-06T11:47:26.857Z,69.13
2018-02-06T11:48:36.582Z,70.07
2018-02-06T11:49:46.290Z,69.03
2018-02-06T11:50:55.979Z,69.13
2018-02-06T11:52:05.923Z,68.46
2018-02-06T11:53:15.616Z,68.27
2018-02-06T11:54:25.305Z,68.08
2018-02-06T11:55:35.284Z,67.43
2018-02-06T11:56:45.002Z,67.24
2018-02-06T11:57:54.982Z,66.57
2018-02-06T11:59:04.438Z,66.67
2018-02-06T12:00:14.407Z,64.58
2018-02-06T12:01:24.363Z,64.96
2018-02-06T12:02:34.305Z,65.63
2018-02-06T12:03:44.257Z,66.09
2018-02-06T12:04:53.691Z,67.11
2018-02-06T12:06:03.383Z,67.68
2018-02-06T12:07:13.341Z,67.11
2018-02-06T12:08:23.032Z,66.28
2018-02-06T12:09:33.030Z,64.2
2018-02-06T12:10:42.988Z,63.35
2018-02-06T12:11:52.948Z,63.54
2018-02-06T12:13:02.897Z,62.69
2018-02-06T12:14:12.851Z,62.69
2018-02-06T12:15:22.812Z,62.56
2018-02-06T12:16:32.499Z,63.89
2018-02-06T12:17:42.484Z,64.93
2018-02-06T12:18:52.478Z,66.06
2018-02-06T12:20:02.451Z,67.2
2018-02-06T12:21:12.413Z,67.39
2018-02-06T12:22:22.369Z,65.78
2018-02-06T12:23:32.067Z,65.78
2018-02-06T12:24:42.042Z,64.96
2018-02-06T12:25:51.733Z,64.11
2018-02-06T12:27:01.425Z,62.69
2018-02-06T12:28:11.368Z,62.4
2018-02-06T12:29:21.322Z,62.78
2018-02-06T12:30:31.285Z,62.97
2018-02-06T12:31:41.233Z,63.13
2018-02-06T12:32:50.667Z,63.98
2018-02-06T12:34:00.609Z,63.7
2018-02-06T12:35:10.311Z,66.06
2018-02-06T12:36:20.000Z,65.97
2018-02-06T12:37:29.735Z,65.59
2018-02-06T12:38:39.702Z,64.01
2018-02-06T12:39:49.393Z,63.07
2018-02-06T12:40:59.088Z,62.56
2018-02-06T12:42:09.032Z,63.6
2018-02-06T12:43:18.735Z,65.59
2018-02-06T12:44:28.431Z,66.73
2018-02-06T12:45:38.142Z,66.35
2018-02-06T12:46:47.849Z,64.74
2018-02-06T12:47:57.812Z,65.59
2018-02-06T12:49:07.796Z,65.88
2018-02-06T12:50:17.799Z,65.25
2018-02-06T12:51:27.237Z,65.15
2018-02-06T12:52:37.207Z,64.58
2018-02-06T12:53:46.644Z,63.82
2018-02-06T12:54:56.342Z,62.4
2018-02-06T12:56:06.127Z,61.65
2018-02-06T12:57:15.957Z,60.99
2018-02-06T12:58:25.921Z,61.46
2018-02-06T12:59:35.902Z,63.26
2018-02-06T13:00:45.869Z,62.69
2018-02-06T13:01:55.580Z,62.21
2018-02-06T13:03:05.521Z,60.89
2018-02-06T13:04:15.564Z,61.55
2018-02-06T13:05:25.003Z,61.08
2018-02-06T13:06:34.959Z,62.02
2018-02-06T13:07:44.897Z,62.5
2018-02-06T13:08:54.893Z,62.75
2018-02-06T13:10:05.135Z,63.51
2018-02-06T13:11:14.868Z,63.7
2018-02-06T13:12:24.813Z,64.17
2018-02-06T13:13:34.510Z,62.69
2018-02-06T13:14:44.457Z,61.46
2018-02-06T13:15:53.892Z,61.27
2018-02-06T13:17:03.825Z,60.32
2018-02-06T13:18:13.765Z,60.41
2018-02-06T13:19:23.701Z,60.32
2018-02-06T13:20:33.642Z,60.13
2018-02-06T13:21:43.349Z,60.13
2018-02-06T13:22:53.053Z,59.38
2018-02-06T13:24:03.000Z,59.47
2018-02-06T13:25:12.943Z,59.19
2018-02-06T13:26:22.886Z,59.56
2018-02-06T13:27:32.824Z,60.7
2018-02-06T13:28:43.025Z,61.36
2018-02-06T13:29:53.001Z,61.55
2018-02-06T13:31:02.952Z,61.55
2018-02-06T13:32:12.140Z,60.32
2018-02-06T13:33:21.571Z,61.11
2018-02-06T13:34:31.529Z,61.74
2018-02-06T13:35:41.505Z,60.99
2018-02-06T13:36:51.490Z,60.7
2018-02-06T13:38:01.174Z,60.61
2018-02-06T13:39:10.888Z,60.48
2018-02-06T13:40:20.836Z,60.86
2018-02-06T13:41:30.783Z,60.29
2018-02-06T13:42:40.471Z,60.77
2018-02-06T13:43:50.173Z,60.48
2018-02-06T13:45:00.135Z,60.48
2018-02-06T13:46:10.072Z,61.24
2018-02-06T13:47:19.756Z,59.84
2018-02-06T13:48:29.706Z,58.84
2018-02-06T13:49:39.658Z,58.65
2018-02-06T13:50:49.591Z,57.79
2018-02-06T13:51:59.541Z,57.76
2018-02-06T13:53:09.499Z,59.09
2018-02-06T13:54:19.218Z,60.7
2018-02-06T13:55:28.919Z,61.18
2018-02-06T13:56:38.358Z,61.8
2018-02-06T13:57:48.322Z,60.13
2018-02-06T13:58:58.274Z,59.94
2018-02-06T14:00:08.219Z,59.75
2018-02-06T14:01:18.186Z,59.47
2018-02-06T14:02:28.218Z,59.94
2018-02-06T14:03:38.179Z,60.22
2018-02-06T14:04:48.140Z,61.24
2018-02-06T14:05:58.114Z,62.09
2018-02-06T14:07:07.810Z,63.23
2018-02-06T14:08:17.763Z,63.04
2018-02-06T14:09:27.719Z,62.94
2018-02-06T14:10:37.418Z,63.6
2018-02-06T14:11:47.415Z,63.89
2018-02-06T14:12:57.129Z,64.07
2018-02-06T14:14:07.084Z,62.94
2018-02-06T14:15:16.531Z,62.66
2018-02-06T14:16:26.494Z,62.37
2018-02-06T14:17:36.452Z,62.94
2018-02-06T14:18:46.408Z,63.6
2018-02-06T14:19:56.366Z,63.51
2018-02-06T14:21:06.312Z,63.98
2018-02-06T14:22:16.273Z,64.17
2018-02-06T14:23:25.709Z,63.79
2018-02-06T14:24:35.671Z,64.74
2018-02-06T14:25:45.655Z,64.64
2018-02-06T14:26:55.613Z,64.26
2018-02-06T14:28:05.558Z,63.6
2018-02-06T14:29:15.248Z,64.07
2018-02-06T14:30:25.254Z,63.98
2018-02-06T14:31:35.208Z,63.51
2018-02-06T14:32:45.160Z,63.6
2018-02-06T14:33:54.604Z,63.51
2018-02-06T14:35:04.554Z,62.85
2018-02-06T14:36:14.252Z,61.99
2018-02-06T14:37:24.507Z,61.33
2018-02-06T14:38:34.211Z,62.47
2018-02-06T14:39:44.167Z,62.56
2018-02-06T14:40:54.130Z,62.53
2018-02-06T14:42:03.589Z,63.1
2018-02-06T14:43:13.282Z,62.72
2018-02-06T14:44:23.242Z,62.34
2018-02-06T14:45:33.194Z,61.87
2018-02-06T14:46:42.897Z,63.29
2018-02-06T14:47:52.642Z,63.76
2018-02-06T14:49:02.595Z,64.61
2018-02-06T14:50:12.343Z,64.33
2018-02-06T14:51:22.306Z,64.99
2018-02-06T14:52:32.316Z,65.18
2018-02-06T14:53:42.268Z,65.37
2018-02-06T14:54:52.228Z,65.18
2018-02-06T14:56:02.175Z,64.99
2018-02-06T14:57:11.900Z,64.9
2018-02-06T14:58:21.866Z,64.71
2018-02-06T14:59:31.838Z,65.18
2018-02-06T15:00:41.794Z,65.84
2018-02-06T15:01:51.755Z,65.84
2018-02-06T15:03:01.842Z,65.94
2018-02-06T15:04:11.802Z,65.09
2018-02-06T15:05:21.770Z,65.47
2018-02-06T15:06:31.506Z,65.56
2018-02-06T15:07:41.204Z,66.03
2018-02-06T15:08:51.206Z,65.75
2018-02-06T15:10:00.619Z,66.03
2018-02-06T15:11:10.315Z,66.13
2018-02-06T15:12:20.273Z,66.5
2018-02-06T15:13:30.229Z,66.69
2018-02-06T15:14:40.188Z,66.13
2018-02-06T15:15:49.619Z,65.94
2018-02-06T15:16:59.564Z,65.75
2018-02-06T15:18:09.271Z,65.66
2018-02-06T15:19:18.991Z,65.47
2018-02-06T15:20:28.948Z,64.71
2018-02-06T15:21:38.654Z,65.47
2018-02-06T15:22:48.664Z,64.9
2018-02-06T15:23:58.614Z,65.28
2018-02-06T15:25:08.571Z,65.47
2018-02-06T15:26:18.523Z,65.28
2018-02-06T15:27:28.495Z,65.28
2018-02-06T15:28:38.453Z,65.56
2018-02-06T15:29:48.407Z,66.03
2018-02-06T15:30:58.108Z,66.56
2018-02-06T15:32:07.556Z,66.09
2018-02-06T15:33:17.509Z,66
2018-02-06T15:34:27.453Z,65.91
2018-02-06T15:35:37.145Z,65.81
2018-02-06T15:36:47.108Z,66
2018-02-06T15:37:56.797Z,66.38
2018-02-06T15:39:06.774Z,66.66
2018-02-06T15:40:16.478Z,66.85
2018-02-06T15:41:26.431Z,66.28
2018-02-06T15:42:36.392Z,66.75
2018-02-06T15:43:46.333Z,67.41
2018-02-06T15:44:56.322Z,67.32
2018-02-06T15:46:06.062Z,66.75
2018-02-06T15:47:15.758Z,67.22
2018-02-06T15:48:25.702Z,67.41
2018-02-06T15:49:35.658Z,67.22
2018-02-06T15:50:45.347Z,67.41
2018-02-06T15:51:55.052Z,67.19
2018-02-06T15:53:05.021Z,67.19
2018-02-06T15:54:14.980Z,67.47
2018-02-06T15:55:24.932Z,68.23
2018-02-06T15:56:34.632Z,68.8
2018-02-06T15:57:44.584Z,68.9
2018-02-06T15:58:54.285Z,68.71
2018-02-06T16:00:04.228Z,68.61
2018-02-06T16:01:14.180Z,68.9
2018-02-06T16:02:24.135Z,68.71
2018-02-06T16:03:33.817Z,69.18
2018-02-06T16:04:43.770Z,69.37
2018-02-06T16:05:53.726Z,69.65
2018-02-06T16:07:03.694Z,69.46
2018-02-06T16:08:13.659Z,69.65
2018-02-06T16:09:23.610Z,70.21
2018-02-06T16:10:33.551Z,69.65
2018-02-06T16:11:43.490Z,70.12
2018-02-06T16:12:53.447Z,70.21
2018-02-06T16:14:03.404Z,69.93
2018-02-06T16:15:13.355Z,70.21
2018-02-06T16:16:22.785Z,70.5
2018-02-06T16:17:32.737Z,70.31
2018-02-06T16:18:42.695Z,70.88
2018-02-06T16:19:52.130Z,70.5
2018-02-06T16:21:02.097Z,71.07
2018-02-06T16:22:12.035Z,70.88
2018-02-06T16:23:21.977Z,70.88
2018-02-06T16:24:31.676Z,70.78
2018-02-06T16:25:41.110Z,70.88
2018-02-06T16:26:51.052Z,71.54
2018-02-06T16:28:00.999Z,71.35
2018-02-06T16:29:10.945Z,71.64
2018-02-06T16:30:20.949Z,71.79
2018-02-06T16:31:30.904Z,71.69
2018-02-06T16:32:40.899Z,71.98
2018-02-06T16:33:50.848Z,71.6
2018-02-06T16:35:00.529Z,72.55
2018-02-06T16:36:10.476Z,72.64
2018-02-06T16:37:20.438Z,71.98
2018-02-06T16:38:30.370Z,72.83
2018-02-06T16:39:40.065Z,72.55
2018-02-06T16:40:50.018Z,72.36
2018-02-06T16:42:00.015Z,72.36
2018-02-06T16:43:09.971Z,73.11
2018-02-06T16:44:19.916Z,72.83
2018-02-06T16:45:29.856Z,73.02
2018-02-06T16:46:39.797Z,73.39
2018-02-06T16:47:49.777Z,73.02
2018-02-06T16:48:59.468Z,72.73
2018-02-06T16:50:09.423Z,73.58
2018-02-06T16:51:19.126Z,73.58
2018-02-06T16:52:28.815Z,73.02
2018-02-06T16:53:38.518Z,73.3
2018-02-06T16:54:48.456Z,73.39
2018-02-06T16:55:58.145Z,73.3
2018-02-06T16:57:07.829Z,73.3
2018-02-06T16:58:17.530Z,74.05